sensor_id;sensor_type;location;lat;lon;timestamp;P1;durP1;ratioP1;P2;durP2;ratioP2
53253;SDS011;39148;53.332;6.922;2023-06-26T00:02:04;4.78;;;3.28;;
53253;SDS011;39148;53.332;6.922;2023-06-26T00:04:30;4.80;;;3.67;;
53253;SDS011;39148;53.332;6.922;2023-06-26T00:06:55;5.30;;;3.25;;
53253;SDS011;39148;53.332;6.922;2023-06-26T00:09:21;6.05;;;3.40;;
53253;SDS011;39148;53.332;6.922;2023-06-26T00:11:47;4.93;;;3.65;;
53253;SDS011;39148;53.332;6.922;2023-06-26T00:14:12;5.20;;;3.53;;
53253;SDS011;39148;53.332;6.922;2023-06-26T00:16:38;4.93;;;3.50;;
53253;SDS011;39148;53.332;6.922;2023-06-26T00:19:04;5.22;;;3.47;;
53253;SDS011;39148;53.332;6.922;2023-06-26T00:21:29;5.05;;;3.42;;
53253;SDS011;39148;53.332;6.922;2023-06-26T00:23:55;5.72;;;3.85;;
53253;SDS011;39148;53.332;6.922;2023-06-26T00:26:21;5.18;;;3.95;;
53253;SDS011;39148;53.332;6.922;2023-06-26T00:28:46;5.22;;;3.45;;
53253;SDS011;39148;53.332;6.922;2023-06-26T00:31:12;5.47;;;3.75;;
53253;SDS011;39148;53.332;6.922;2023-06-26T00:33:38;5.35;;;3.60;;
53253;SDS011;39148;53.332;6.922;2023-06-26T00:36:03;5.68;;;3.75;;
53253;SDS011;39148;53.332;6.922;2023-06-26T00:38:29;5.40;;;3.83;;
53253;SDS011;39148;53.332;6.922;2023-06-26T00:40:55;5.50;;;4.03;;
53253;SDS011;39148;53.332;6.922;2023-06-26T00:43:21;6.38;;;3.60;;
53253;SDS011;39148;53.332;6.922;2023-06-26T00:45:47;4.82;;;3.53;;
53253;SDS011;39148;53.332;6.922;2023-06-26T00:48:12;6.30;;;4.25;;
53253;SDS011;39148;53.332;6.922;2023-06-26T00:50:38;5.75;;;3.80;;
53253;SDS011;39148;53.332;6.922;2023-06-26T00:53:05;5.10;;;3.47;;
53253;SDS011;39148;53.332;6.922;2023-06-26T00:55:31;5.00;;;3.90;;
53253;SDS011;39148;53.332;6.922;2023-06-26T00:57:56;5.65;;;3.80;;
53253;SDS011;39148;53.332;6.922;2023-06-26T01:00:22;5.80;;;3.97;;
53253;SDS011;39148;53.332;6.922;2023-06-26T01:02:48;5.47;;;3.83;;
53253;SDS011;39148;53.332;6.922;2023-06-26T01:05:14;5.38;;;3.88;;
53253;SDS011;39148;53.332;6.922;2023-06-26T01:07:48;5.25;;;4.05;;
53253;SDS011;39148;53.332;6.922;2023-06-26T01:10:15;5.20;;;3.60;;
53253;SDS011;39148;53.332;6.922;2023-06-26T01:12:41;6.22;;;4.32;;
53253;SDS011;39148;53.332;6.922;2023-06-26T01:15:06;5.65;;;3.88;;
53253;SDS011;39148;53.332;6.922;2023-06-26T01:17:33;5.15;;;3.72;;
53253;SDS011;39148;53.332;6.922;2023-06-26T01:20:00;5.85;;;3.65;;
53253;SDS011;39148;53.332;6.922;2023-06-26T01:22:34;5.13;;;3.53;;
53253;SDS011;39148;53.332;6.922;2023-06-26T01:27:46;5.13;;;3.85;;
53253;SDS011;39148;53.332;6.922;2023-06-26T01:30:15;5.63;;;4.18;;
53253;SDS011;39148;53.332;6.922;2023-06-26T01:32:42;5.15;;;3.80;;
53253;SDS011;39148;53.332;6.922;2023-06-26T01:35:10;6.82;;;3.80;;
53253;SDS011;39148;53.332;6.922;2023-06-26T01:37:36;5.22;;;4.13;;
53253;SDS011;39148;53.332;6.922;2023-06-26T01:40:02;5.75;;;3.90;;
53253;SDS011;39148;53.332;6.922;2023-06-26T01:42:31;6.07;;;3.60;;
53253;SDS011;39148;53.332;6.922;2023-06-26T01:44:57;5.15;;;4.07;;
53253;SDS011;39148;53.332;6.922;2023-06-26T01:47:32;6.15;;;3.70;;
53253;SDS011;39148;53.332;6.922;2023-06-26T01:53:04;5.78;;;4.40;;
53253;SDS011;39148;53.332;6.922;2023-06-26T01:55:41;5.40;;;3.75;;
53253;SDS011;39148;53.332;6.922;2023-06-26T01:58:13;6.60;;;4.38;;
53253;SDS011;39148;53.332;6.922;2023-06-26T02:00:41;5.55;;;3.95;;
53253;SDS011;39148;53.332;6.922;2023-06-26T02:03:08;5.70;;;4.25;;
53253;SDS011;39148;53.332;6.922;2023-06-26T02:05:34;6.28;;;3.72;;
53253;SDS011;39148;53.332;6.922;2023-06-26T02:08:00;5.70;;;4.20;;
53253;SDS011;39148;53.332;6.922;2023-06-26T02:10:28;5.78;;;4.30;;
53253;SDS011;39148;53.332;6.922;2023-06-26T02:12:54;5.60;;;4.13;;
53253;SDS011;39148;53.332;6.922;2023-06-26T02:15:20;5.22;;;3.85;;
53253;SDS011;39148;53.332;6.922;2023-06-26T02:17:46;5.22;;;3.80;;
53253;SDS011;39148;53.332;6.922;2023-06-26T02:20:13;5.50;;;3.90;;
53253;SDS011;39148;53.332;6.922;2023-06-26T02:22:40;5.50;;;4.15;;
53253;SDS011;39148;53.332;6.922;2023-06-26T02:25:06;5.10;;;3.97;;
53253;SDS011;39148;53.332;6.922;2023-06-26T02:27:32;6.47;;;3.97;;
53253;SDS011;39148;53.332;6.922;2023-06-26T02:29:58;5.70;;;4.15;;
53253;SDS011;39148;53.332;6.922;2023-06-26T02:32:23;5.43;;;4.07;;
53253;SDS011;39148;53.332;6.922;2023-06-26T02:34:49;5.32;;;3.63;;
53253;SDS011;39148;53.332;6.922;2023-06-26T02:37:17;5.30;;;3.78;;
53253;SDS011;39148;53.332;6.922;2023-06-26T02:39:43;5.70;;;4.22;;
53253;SDS011;39148;53.332;6.922;2023-06-26T02:42:08;5.15;;;3.75;;
53253;SDS011;39148;53.332;6.922;2023-06-26T02:44:34;6.10;;;4.53;;
53253;SDS011;39148;53.332;6.922;2023-06-26T02:47:00;5.40;;;4.20;;
53253;SDS011;39148;53.332;6.922;2023-06-26T02:49:25;6.15;;;4.75;;
53253;SDS011;39148;53.332;6.922;2023-06-26T02:51:51;6.25;;;4.28;;
53253;SDS011;39148;53.332;6.922;2023-06-26T02:54:17;5.90;;;4.05;;
53253;SDS011;39148;53.332;6.922;2023-06-26T02:56:42;7.43;;;3.95;;
53253;SDS011;39148;53.332;6.922;2023-06-26T02:59:08;5.70;;;4.05;;
53253;SDS011;39148;53.332;6.922;2023-06-26T03:01:34;6.63;;;4.70;;
53253;SDS011;39148;53.332;6.922;2023-06-26T03:03:59;5.50;;;4.07;;
53253;SDS011;39148;53.332;6.922;2023-06-26T03:06:26;6.30;;;4.10;;
53253;SDS011;39148;53.332;6.922;2023-06-26T03:08:52;5.95;;;4.55;;
53253;SDS011;39148;53.332;6.922;2023-06-26T03:11:19;6.38;;;4.72;;
53253;SDS011;39148;53.332;6.922;2023-06-26T03:13:44;5.40;;;4.05;;
53253;SDS011;39148;53.332;6.922;2023-06-26T03:16:10;6.50;;;4.47;;
53253;SDS011;39148;53.332;6.922;2023-06-26T03:18:36;5.88;;;4.30;;
53253;SDS011;39148;53.332;6.922;2023-06-26T03:29:37;5.78;;;4.55;;
53253;SDS011;39148;53.332;6.922;2023-06-26T03:32:03;6.25;;;4.68;;
53253;SDS011;39148;53.332;6.922;2023-06-26T03:34:29;5.97;;;4.85;;
53253;SDS011;39148;53.332;6.922;2023-06-26T03:36:55;6.80;;;4.68;;
53253;SDS011;39148;53.332;6.922;2023-06-26T03:39:20;5.70;;;4.53;;
53253;SDS011;39148;53.332;6.922;2023-06-26T03:41:46;6.45;;;4.78;;
53253;SDS011;39148;53.332;6.922;2023-06-26T03:44:11;7.05;;;4.47;;
53253;SDS011;39148;53.332;6.922;2023-06-26T03:46:37;5.90;;;4.70;;
53253;SDS011;39148;53.332;6.922;2023-06-26T03:49:03;7.28;;;5.07;;
53253;SDS011;39148;53.332;6.922;2023-06-26T03:51:28;6.60;;;4.70;;
53253;SDS011;39148;53.332;6.922;2023-06-26T03:53:54;7.20;;;4.55;;
53253;SDS011;39148;53.332;6.922;2023-06-26T03:56:20;7.25;;;5.10;;
53253;SDS011;39148;53.332;6.922;2023-06-26T03:58:45;6.57;;;4.82;;
53253;SDS011;39148;53.332;6.922;2023-06-26T04:01:11;6.70;;;4.72;;
53253;SDS011;39148;53.332;6.922;2023-06-26T04:03:37;6.53;;;4.82;;
53253;SDS011;39148;53.332;6.922;2023-06-26T04:06:02;6.68;;;4.82;;
53253;SDS011;39148;53.332;6.922;2023-06-26T04:08:28;6.60;;;5.10;;
53253;SDS011;39148;53.332;6.922;2023-06-26T04:10:54;7.38;;;5.32;;
53253;SDS011;39148;53.332;6.922;2023-06-26T04:13:22;7.18;;;5.38;;
53253;SDS011;39148;53.332;6.922;2023-06-26T04:15:48;6.35;;;5.05;;
53253;SDS011;39148;53.332;6.922;2023-06-26T04:18:13;7.30;;;5.57;;
53253;SDS011;39148;53.332;6.922;2023-06-26T04:20:39;7.45;;;5.22;;
53253;SDS011;39148;53.332;6.922;2023-06-26T04:23:06;6.97;;;5.32;;
53253;SDS011;39148;53.332;6.922;2023-06-26T04:25:32;6.32;;;5.13;;
53253;SDS011;39148;53.332;6.922;2023-06-26T04:27:58;5.68;;;4.40;;
53253;SDS011;39148;53.332;6.922;2023-06-26T04:30:23;6.72;;;4.97;;
53253;SDS011;39148;53.332;6.922;2023-06-26T04:32:49;9.52;;;4.82;;
53253;SDS011;39148;53.332;6.922;2023-06-26T04:35:15;8.38;;;5.32;;
53253;SDS011;39148;53.332;6.922;2023-06-26T04:37:40;7.15;;;5.00;;
53253;SDS011;39148;53.332;6.922;2023-06-26T04:40:06;7.35;;;4.90;;
53253;SDS011;39148;53.332;6.922;2023-06-26T04:42:34;6.32;;;5.28;;
53253;SDS011;39148;53.332;6.922;2023-06-26T04:45:00;6.65;;;5.10;;
53253;SDS011;39148;53.332;6.922;2023-06-26T04:47:27;6.68;;;5.15;;
53253;SDS011;39148;53.332;6.922;2023-06-26T04:49:53;6.13;;;4.95;;
53253;SDS011;39148;53.332;6.922;2023-06-26T04:52:20;7.32;;;5.18;;
53253;SDS011;39148;53.332;6.922;2023-06-26T04:54:45;6.45;;;4.80;;
53253;SDS011;39148;53.332;6.922;2023-06-26T04:57:11;6.68;;;5.00;;
53253;SDS011;39148;53.332;6.922;2023-06-26T04:59:37;6.43;;;5.28;;
53253;SDS011;39148;53.332;6.922;2023-06-26T05:02:02;7.95;;;4.90;;
53253;SDS011;39148;53.332;6.922;2023-06-26T05:04:30;6.53;;;4.85;;
53253;SDS011;39148;53.332;6.922;2023-06-26T05:06:55;7.00;;;4.93;;
53253;SDS011;39148;53.332;6.922;2023-06-26T05:09:21;6.65;;;4.72;;
53253;SDS011;39148;53.332;6.922;2023-06-26T05:11:47;6.13;;;4.75;;
53253;SDS011;39148;53.332;6.922;2023-06-26T05:14:12;6.75;;;4.90;;
53253;SDS011;39148;53.332;6.922;2023-06-26T05:16:38;9.75;;;5.00;;
53253;SDS011;39148;53.332;6.922;2023-06-26T05:19:04;7.40;;;5.10;;
53253;SDS011;39148;53.332;6.922;2023-06-26T05:21:30;7.05;;;4.70;;
53253;SDS011;39148;53.332;6.922;2023-06-26T05:23:56;8.65;;;4.63;;
53253;SDS011;39148;53.332;6.922;2023-06-26T05:26:23;7.88;;;5.03;;
53253;SDS011;39148;53.332;6.922;2023-06-26T05:28:49;9.45;;;4.78;;
53253;SDS011;39148;53.332;6.922;2023-06-26T05:31:15;7.05;;;4.78;;
53253;SDS011;39148;53.332;6.922;2023-06-26T05:33:43;8.88;;;5.10;;
53253;SDS011;39148;53.332;6.922;2023-06-26T05:36:10;8.27;;;4.90;;
53253;SDS011;39148;53.332;6.922;2023-06-26T05:38:39;8.43;;;5.47;;
53253;SDS011;39148;53.332;6.922;2023-06-26T05:41:04;7.60;;;4.93;;
53253;SDS011;39148;53.332;6.922;2023-06-26T05:43:30;9.00;;;4.95;;
53253;SDS011;39148;53.332;6.922;2023-06-26T05:45:56;9.98;;;5.03;;
53253;SDS011;39148;53.332;6.922;2023-06-26T05:48:25;8.95;;;5.40;;
53253;SDS011;39148;53.332;6.922;2023-06-26T05:50:51;8.63;;;5.40;;
53253;SDS011;39148;53.332;6.922;2023-06-26T05:53:17;8.23;;;4.93;;
53253;SDS011;39148;53.332;6.922;2023-06-26T05:55:43;9.65;;;5.55;;
53253;SDS011;39148;53.332;6.922;2023-06-26T05:58:09;7.38;;;4.93;;
53253;SDS011;39148;53.332;6.922;2023-06-26T06:00:36;10.45;;;5.75;;
53253;SDS011;39148;53.332;6.922;2023-06-26T06:03:03;8.75;;;5.00;;
53253;SDS011;39148;53.332;6.922;2023-06-26T06:05:29;9.35;;;4.50;;
53253;SDS011;39148;53.332;6.922;2023-06-26T06:07:54;10.98;;;5.47;;
53253;SDS011;39148;53.332;6.922;2023-06-26T06:10:20;9.05;;;4.78;;
53253;SDS011;39148;53.332;6.922;2023-06-26T06:12:46;13.32;;;5.20;;
53253;SDS011;39148;53.332;6.922;2023-06-26T06:15:11;10.23;;;4.57;;
53253;SDS011;39148;53.332;6.922;2023-06-26T06:17:37;12.55;;;4.63;;
53253;SDS011;39148;53.332;6.922;2023-06-26T06:20:03;10.85;;;4.65;;
53253;SDS011;39148;53.332;6.922;2023-06-26T06:22:29;8.45;;;4.03;;
53253;SDS011;39148;53.332;6.922;2023-06-26T06:24:55;9.38;;;3.90;;
53253;SDS011;39148;53.332;6.922;2023-06-26T06:27:20;11.70;;;4.32;;
53253;SDS011;39148;53.332;6.922;2023-06-26T06:29:46;7.53;;;3.25;;
53253;SDS011;39148;53.332;6.922;2023-06-26T06:32:12;9.85;;;3.85;;
53253;SDS011;39148;53.332;6.922;2023-06-26T06:34:38;8.25;;;3.50;;
53253;SDS011;39148;53.332;6.922;2023-06-26T06:37:03;8.82;;;3.90;;
53253;SDS011;39148;53.332;6.922;2023-06-26T06:39:29;7.88;;;3.17;;
53253;SDS011;39148;53.332;6.922;2023-06-26T06:41:55;7.35;;;3.03;;
53253;SDS011;39148;53.332;6.922;2023-06-26T06:44:20;8.98;;;3.25;;
53253;SDS011;39148;53.332;6.922;2023-06-26T06:46:47;8.43;;;2.92;;
53253;SDS011;39148;53.332;6.922;2023-06-26T06:49:12;8.40;;;3.13;;
53253;SDS011;39148;53.332;6.922;2023-06-26T06:51:38;9.25;;;2.78;;
53253;SDS011;39148;53.332;6.922;2023-06-26T06:54:04;9.60;;;3.28;;
53253;SDS011;39148;53.332;6.922;2023-06-26T06:56:29;6.45;;;2.83;;
53253;SDS011;39148;53.332;6.922;2023-06-26T06:58:55;8.65;;;2.55;;
53253;SDS011;39148;53.332;6.922;2023-06-26T07:01:21;6.97;;;2.55;;
53253;SDS011;39148;53.332;6.922;2023-06-26T07:03:46;7.40;;;2.85;;
53253;SDS011;39148;53.332;6.922;2023-06-26T07:06:12;8.05;;;2.67;;
53253;SDS011;39148;53.332;6.922;2023-06-26T07:08:38;8.82;;;2.20;;
53253;SDS011;39148;53.332;6.922;2023-06-26T07:11:04;7.20;;;2.28;;
53253;SDS011;39148;53.332;6.922;2023-06-26T07:13:29;7.25;;;2.55;;
53253;SDS011;39148;53.332;6.922;2023-06-26T07:15:55;7.50;;;2.40;;
53253;SDS011;39148;53.332;6.922;2023-06-26T07:18:20;11.63;;;2.60;;
53253;SDS011;39148;53.332;6.922;2023-06-26T07:20:46;6.75;;;1.95;;
53253;SDS011;39148;53.332;6.922;2023-06-26T07:23:12;7.40;;;2.22;;
53253;SDS011;39148;53.332;6.922;2023-06-26T07:25:37;5.25;;;2.15;;
53253;SDS011;39148;53.332;6.922;2023-06-26T07:28:05;6.40;;;2.22;;
53253;SDS011;39148;53.332;6.922;2023-06-26T07:30:35;5.97;;;2.20;;
53253;SDS011;39148;53.332;6.922;2023-06-26T07:33:01;5.57;;;1.95;;
53253;SDS011;39148;53.332;6.922;2023-06-26T07:35:27;5.88;;;1.90;;
53253;SDS011;39148;53.332;6.922;2023-06-26T07:37:53;7.38;;;2.45;;
53253;SDS011;39148;53.332;6.922;2023-06-26T07:40:18;5.53;;;1.60;;
53253;SDS011;39148;53.332;6.922;2023-06-26T07:42:44;5.95;;;1.80;;
53253;SDS011;39148;53.332;6.922;2023-06-26T07:45:11;7.03;;;2.13;;
53253;SDS011;39148;53.332;6.922;2023-06-26T07:47:37;6.22;;;1.85;;
53253;SDS011;39148;53.332;6.922;2023-06-26T07:50:03;8.27;;;2.10;;
53253;SDS011;39148;53.332;6.922;2023-06-26T07:52:29;5.75;;;1.60;;
53253;SDS011;39148;53.332;6.922;2023-06-26T07:54:56;5.60;;;1.98;;
53253;SDS011;39148;53.332;6.922;2023-06-26T07:57:22;4.85;;;1.35;;
53253;SDS011;39148;53.332;6.922;2023-06-26T07:59:48;6.13;;;1.60;;
53253;SDS011;39148;53.332;6.922;2023-06-26T08:02:14;6.15;;;1.60;;
53253;SDS011;39148;53.332;6.922;2023-06-26T08:04:40;5.22;;;1.40;;
53253;SDS011;39148;53.332;6.922;2023-06-26T08:07:06;6.97;;;1.65;;
53253;SDS011;39148;53.332;6.922;2023-06-26T08:09:32;7.57;;;1.80;;
53253;SDS011;39148;53.332;6.922;2023-06-26T08:11:58;5.07;;;1.65;;
53253;SDS011;39148;53.332;6.922;2023-06-26T08:14:24;4.85;;;1.77;;
53253;SDS011;39148;53.332;6.922;2023-06-26T08:16:50;5.20;;;1.30;;
53253;SDS011;39148;53.332;6.922;2023-06-26T08:19:16;5.25;;;1.50;;
53253;SDS011;39148;53.332;6.922;2023-06-26T08:21:42;5.05;;;1.63;;
53253;SDS011;39148;53.332;6.922;2023-06-26T08:24:09;5.68;;;1.50;;
53253;SDS011;39148;53.332;6.922;2023-06-26T08:26:35;5.00;;;1.67;;
53253;SDS011;39148;53.332;6.922;2023-06-26T08:29:01;5.82;;;1.45;;
53253;SDS011;39148;53.332;6.922;2023-06-26T08:31:36;5.03;;;1.20;;
53253;SDS011;39148;53.332;6.922;2023-06-26T08:34:03;4.90;;;1.48;;
53253;SDS011;39148;53.332;6.922;2023-06-26T08:36:29;5.88;;;1.25;;
53253;SDS011;39148;53.332;6.922;2023-06-26T08:38:55;5.82;;;1.50;;
53253;SDS011;39148;53.332;6.922;2023-06-26T08:41:21;3.40;;;1.20;;
53253;SDS011;39148;53.332;6.922;2023-06-26T08:43:47;6.95;;;2.13;;
53253;SDS011;39148;53.332;6.922;2023-06-26T08:46:15;4.35;;;1.13;;
53253;SDS011;39148;53.332;6.922;2023-06-26T08:48:41;4.47;;;1.38;;
53253;SDS011;39148;53.332;6.922;2023-06-26T08:51:11;5.00;;;1.20;;
53253;SDS011;39148;53.332;6.922;2023-06-26T08:56:24;5.10;;;1.30;;
53253;SDS011;39148;53.332;6.922;2023-06-26T08:58:52;4.35;;;1.42;;
53253;SDS011;39148;53.332;6.922;2023-06-26T09:01:20;3.25;;;1.02;;
53253;SDS011;39148;53.332;6.922;2023-06-26T09:03:46;5.72;;;1.20;;
53253;SDS011;39148;53.332;6.922;2023-06-26T09:06:11;4.82;;;1.30;;
53253;SDS011;39148;53.332;6.922;2023-06-26T09:08:37;4.60;;;1.50;;
53253;SDS011;39148;53.332;6.922;2023-06-26T09:11:03;3.85;;;1.25;;
53253;SDS011;39148;53.332;6.922;2023-06-26T09:13:30;5.35;;;1.50;;
53253;SDS011;39148;53.332;6.922;2023-06-26T09:15:56;3.65;;;1.10;;
53253;SDS011;39148;53.332;6.922;2023-06-26T09:18:21;4.72;;;1.10;;
53253;SDS011;39148;53.332;6.922;2023-06-26T09:20:50;4.97;;;1.30;;
53253;SDS011;39148;53.332;6.922;2023-06-26T09:23:16;5.40;;;1.48;;
53253;SDS011;39148;53.332;6.922;2023-06-26T09:25:42;4.30;;;1.25;;
53253;SDS011;39148;53.332;6.922;2023-06-26T09:28:09;3.95;;;1.00;;
53253;SDS011;39148;53.332;6.922;2023-06-26T09:30:35;3.35;;;1.02;;
53253;SDS011;39148;53.332;6.922;2023-06-26T09:33:20;6.15;;;1.30;;
53253;SDS011;39148;53.332;6.922;2023-06-26T09:35:46;4.00;;;1.10;;
53253;SDS011;39148;53.332;6.922;2023-06-26T09:38:13;3.30;;;1.17;;
53253;SDS011;39148;53.332;6.922;2023-06-26T09:40:47;3.47;;;0.93;;
53253;SDS011;39148;53.332;6.922;2023-06-26T09:43:13;3.08;;;0.90;;
53253;SDS011;39148;53.332;6.922;2023-06-26T09:45:39;3.60;;;0.90;;
53253;SDS011;39148;53.332;6.922;2023-06-26T09:48:05;5.32;;;1.20;;
53253;SDS011;39148;53.332;6.922;2023-06-26T09:50:36;4.40;;;1.20;;
53253;SDS011;39148;53.332;6.922;2023-06-26T09:53:09;4.00;;;1.20;;
53253;SDS011;39148;53.332;6.922;2023-06-26T09:55:36;4.80;;;1.10;;
53253;SDS011;39148;53.332;6.922;2023-06-26T09:58:02;3.75;;;1.20;;
53253;SDS011;39148;53.332;6.922;2023-06-26T10:00:29;4.82;;;1.30;;
53253;SDS011;39148;53.332;6.922;2023-06-26T10:02:55;4.60;;;1.20;;
53253;SDS011;39148;53.332;6.922;2023-06-26T10:05:21;3.38;;;1.20;;
53253;SDS011;39148;53.332;6.922;2023-06-26T10:07:47;3.78;;;1.20;;
53253;SDS011;39148;53.332;6.922;2023-06-26T10:10:13;4.90;;;1.13;;
53253;SDS011;39148;53.332;6.922;2023-06-26T10:12:41;4.03;;;1.08;;
53253;SDS011;39148;53.332;6.922;2023-06-26T10:15:11;4.68;;;1.13;;
53253;SDS011;39148;53.332;6.922;2023-06-26T10:17:41;4.03;;;1.10;;
53253;SDS011;39148;53.332;6.922;2023-06-26T10:20:09;4.75;;;1.40;;
53253;SDS011;39148;53.332;6.922;2023-06-26T10:22:37;4.07;;;1.40;;
53253;SDS011;39148;53.332;6.922;2023-06-26T10:25:08;3.42;;;1.13;;
53253;SDS011;39148;53.332;6.922;2023-06-26T10:27:37;3.92;;;1.50;;
53253;SDS011;39148;53.332;6.922;2023-06-26T10:30:06;5.72;;;1.40;;
53253;SDS011;39148;53.332;6.922;2023-06-26T10:32:37;5.57;;;1.35;;
53253;SDS011;39148;53.332;6.922;2023-06-26T10:35:05;3.78;;;1.17;;
53253;SDS011;39148;53.332;6.922;2023-06-26T10:40:10;5.82;;;1.23;;
53253;SDS011;39148;53.332;6.922;2023-06-26T10:42:38;3.72;;;1.33;;
53253;SDS011;39148;53.332;6.922;2023-06-26T10:45:11;5.00;;;1.42;;
53253;SDS011;39148;53.332;6.922;2023-06-26T10:47:40;4.25;;;1.30;;
53253;SDS011;39148;53.332;6.922;2023-06-26T10:50:27;3.25;;;1.20;;
53253;SDS011;39148;53.332;6.922;2023-06-26T10:55:55;4.63;;;1.55;;
53253;SDS011;39148;53.332;6.922;2023-06-26T11:03:46;4.22;;;1.52;;
53253;SDS011;39148;53.332;6.922;2023-06-26T11:06:20;5.00;;;1.20;;
53253;SDS011;39148;53.332;6.922;2023-06-26T11:08:47;5.25;;;1.10;;
53253;SDS011;39148;53.332;6.922;2023-06-26T11:11:14;4.68;;;1.85;;
53253;SDS011;39148;53.332;6.922;2023-06-26T11:13:41;3.40;;;1.35;;
53253;SDS011;39148;53.332;6.922;2023-06-26T11:16:07;3.72;;;1.30;;
53253;SDS011;39148;53.332;6.922;2023-06-26T11:18:33;5.15;;;1.58;;
53253;SDS011;39148;53.332;6.922;2023-06-26T11:21:05;5.25;;;1.17;;
53253;SDS011;39148;53.332;6.922;2023-06-26T11:23:31;4.15;;;1.55;;
53253;SDS011;39148;53.332;6.922;2023-06-26T11:26:12;3.30;;;1.20;;
53253;SDS011;39148;53.332;6.922;2023-06-26T11:28:48;3.42;;;1.13;;
53253;SDS011;39148;53.332;6.922;2023-06-26T11:31:28;3.95;;;1.40;;
53253;SDS011;39148;53.332;6.922;2023-06-26T11:34:03;4.35;;;1.50;;
53253;SDS011;39148;53.332;6.922;2023-06-26T11:36:36;3.70;;;0.93;;
53253;SDS011;39148;53.332;6.922;2023-06-26T11:39:04;6.03;;;2.00;;
53253;SDS011;39148;53.332;6.922;2023-06-26T11:41:31;4.30;;;1.48;;
53253;SDS011;39148;53.332;6.922;2023-06-26T11:44:16;3.17;;;1.27;;
53253;SDS011;39148;53.332;6.922;2023-06-26T11:46:45;4.18;;;1.27;;
53253;SDS011;39148;53.332;6.922;2023-06-26T11:49:11;5.05;;;1.67;;
53253;SDS011;39148;53.332;6.922;2023-06-26T11:51:36;4.57;;;1.27;;
53253;SDS011;39148;53.332;6.922;2023-06-26T11:54:02;6.63;;;1.33;;
53253;SDS011;39148;53.332;6.922;2023-06-26T11:56:29;4.32;;;1.27;;
53253;SDS011;39148;53.332;6.922;2023-06-26T11:59:02;4.90;;;1.23;;
53253;SDS011;39148;53.332;6.922;2023-06-26T12:04:13;4.45;;;1.23;;
53253;SDS011;39148;53.332;6.922;2023-06-26T12:06:48;4.10;;;1.08;;
53253;SDS011;39148;53.332;6.922;2023-06-26T12:09:16;4.10;;;1.20;;
53253;SDS011;39148;53.332;6.922;2023-06-26T12:11:44;4.97;;;1.40;;
53253;SDS011;39148;53.332;6.922;2023-06-26T12:14:13;4.63;;;1.10;;
53253;SDS011;39148;53.332;6.922;2023-06-26T12:16:39;4.10;;;1.10;;
53253;SDS011;39148;53.332;6.922;2023-06-26T12:19:06;4.10;;;1.30;;
53253;SDS011;39148;53.332;6.922;2023-06-26T12:23:59;5.00;;;1.42;;
53253;SDS011;39148;53.332;6.922;2023-06-26T12:26:26;3.83;;;1.10;;
53253;SDS011;39148;53.332;6.922;2023-06-26T12:29:00;4.13;;;1.33;;
53253;SDS011;39148;53.332;6.922;2023-06-26T12:31:27;2.28;;;0.82;;
53253;SDS011;39148;53.332;6.922;2023-06-26T12:33:53;5.53;;;1.40;;
53253;SDS011;39148;53.332;6.922;2023-06-26T12:36:19;5.47;;;1.23;;
53253;SDS011;39148;53.332;6.922;2023-06-26T12:38:45;4.15;;;1.20;;
53253;SDS011;39148;53.332;6.922;2023-06-26T12:41:12;5.35;;;1.10;;
53253;SDS011;39148;53.332;6.922;2023-06-26T12:43:41;3.03;;;0.93;;
53253;SDS011;39148;53.332;6.922;2023-06-26T12:46:07;3.67;;;1.05;;
53253;SDS011;39148;53.332;6.922;2023-06-26T12:48:43;3.10;;;0.95;;
53253;SDS011;39148;53.332;6.922;2023-06-26T12:51:11;5.50;;;1.50;;
53253;SDS011;39148;53.332;6.922;2023-06-26T12:53:38;3.92;;;1.17;;
53253;SDS011;39148;53.332;6.922;2023-06-26T12:56:07;5.47;;;1.20;;
53253;SDS011;39148;53.332;6.922;2023-06-26T12:58:34;4.25;;;1.00;;
53253;SDS011;39148;53.332;6.922;2023-06-26T13:01:02;4.63;;;1.17;;
53253;SDS011;39148;53.332;6.922;2023-06-26T13:03:29;3.72;;;1.00;;
53253;SDS011;39148;53.332;6.922;2023-06-26T13:05:54;4.18;;;1.05;;
53253;SDS011;39148;53.332;6.922;2023-06-26T13:08:20;4.60;;;1.15;;
53253;SDS011;39148;53.332;6.922;2023-06-26T13:10:46;3.83;;;1.10;;
53253;SDS011;39148;53.332;6.922;2023-06-26T13:13:11;5.05;;;1.08;;
53253;SDS011;39148;53.332;6.922;2023-06-26T13:15:37;3.65;;;1.25;;
53253;SDS011;39148;53.332;6.922;2023-06-26T13:18:03;3.72;;;0.95;;
53253;SDS011;39148;53.332;6.922;2023-06-26T13:20:28;4.95;;;1.10;;
53253;SDS011;39148;53.332;6.922;2023-06-26T13:22:54;4.35;;;1.02;;
53253;SDS011;39148;53.332;6.922;2023-06-26T13:25:21;4.07;;;1.05;;
53253;SDS011;39148;53.332;6.922;2023-06-26T13:27:47;4.15;;;1.20;;
53253;SDS011;39148;53.332;6.922;2023-06-26T13:30:13;3.45;;;1.20;;
53253;SDS011;39148;53.332;6.922;2023-06-26T13:32:40;4.05;;;1.10;;
53253;SDS011;39148;53.332;6.922;2023-06-26T13:35:06;2.58;;;0.85;;
53253;SDS011;39148;53.332;6.922;2023-06-26T13:37:32;3.58;;;0.90;;
53253;SDS011;39148;53.332;6.922;2023-06-26T13:39:59;4.20;;;0.82;;
53253;SDS011;39148;53.332;6.922;2023-06-26T13:42:27;3.22;;;1.00;;
53253;SDS011;39148;53.332;6.922;2023-06-26T13:44:53;3.17;;;0.90;;
53253;SDS011;39148;53.332;6.922;2023-06-26T13:47:18;3.60;;;1.00;;
53253;SDS011;39148;53.332;6.922;2023-06-26T13:49:44;4.60;;;1.05;;
53253;SDS011;39148;53.332;6.922;2023-06-26T13:52:10;4.90;;;1.30;;
53253;SDS011;39148;53.332;6.922;2023-06-26T13:54:36;4.05;;;0.85;;
53253;SDS011;39148;53.332;6.922;2023-06-26T13:57:04;4.60;;;0.98;;
53253;SDS011;39148;53.332;6.922;2023-06-26T13:59:30;3.33;;;0.90;;
53253;SDS011;39148;53.332;6.922;2023-06-26T14:01:57;2.83;;;0.90;;
53253;SDS011;39148;53.332;6.922;2023-06-26T14:04:22;3.25;;;1.00;;
53253;SDS011;39148;53.332;6.922;2023-06-26T14:06:48;3.30;;;0.90;;
53253;SDS011;39148;53.332;6.922;2023-06-26T14:09:14;5.35;;;1.30;;
53253;SDS011;39148;53.332;6.922;2023-06-26T14:11:39;3.75;;;0.90;;
53253;SDS011;39148;53.332;6.922;2023-06-26T14:14:05;5.30;;;1.40;;
53253;SDS011;39148;53.332;6.922;2023-06-26T14:16:31;5.97;;;1.45;;
53253;SDS011;39148;53.332;6.922;2023-06-26T14:18:58;4.05;;;1.10;;
53253;SDS011;39148;53.332;6.922;2023-06-26T14:21:23;4.07;;;1.13;;
53253;SDS011;39148;53.332;6.922;2023-06-26T14:23:49;3.65;;;1.02;;
53253;SDS011;39148;53.332;6.922;2023-06-26T14:26:15;3.80;;;0.90;;
53253;SDS011;39148;53.332;6.922;2023-06-26T14:28:40;4.18;;;1.13;;
53253;SDS011;39148;53.332;6.922;2023-06-26T14:31:06;3.20;;;0.90;;
53253;SDS011;39148;53.332;6.922;2023-06-26T14:33:32;4.43;;;1.02;;
53253;SDS011;39148;53.332;6.922;2023-06-26T14:35:57;5.50;;;1.42;;
53253;SDS011;39148;53.332;6.922;2023-06-26T14:38:23;4.60;;;0.85;;
53253;SDS011;39148;53.332;6.922;2023-06-26T14:40:49;4.55;;;1.20;;
53253;SDS011;39148;53.332;6.922;2023-06-26T14:43:14;5.53;;;1.08;;
53253;SDS011;39148;53.332;6.922;2023-06-26T14:45:41;4.55;;;0.98;;
53253;SDS011;39148;53.332;6.922;2023-06-26T14:48:07;5.85;;;1.02;;
53253;SDS011;39148;53.332;6.922;2023-06-26T14:50:32;4.88;;;1.10;;
53253;SDS011;39148;53.332;6.922;2023-06-26T14:52:58;3.70;;;0.88;;
53253;SDS011;39148;53.332;6.922;2023-06-26T14:55:24;4.00;;;0.95;;
53253;SDS011;39148;53.332;6.922;2023-06-26T14:57:50;3.88;;;1.05;;
53253;SDS011;39148;53.332;6.922;2023-06-26T15:00:16;4.05;;;0.85;;
53253;SDS011;39148;53.332;6.922;2023-06-26T15:02:41;4.50;;;1.10;;
53253;SDS011;39148;53.332;6.922;2023-06-26T15:05:07;7.05;;;1.27;;
53253;SDS011;39148;53.332;6.922;2023-06-26T15:07:33;4.30;;;0.85;;
53253;SDS011;39148;53.332;6.922;2023-06-26T15:09:59;4.35;;;1.05;;
53253;SDS011;39148;53.332;6.922;2023-06-26T15:12:25;3.92;;;1.05;;
53253;SDS011;39148;53.332;6.922;2023-06-26T15:14:52;2.85;;;0.82;;
53253;SDS011;39148;53.332;6.922;2023-06-26T15:17:18;5.03;;;1.17;;
53253;SDS011;39148;53.332;6.922;2023-06-26T15:19:44;6.07;;;1.20;;